sensor_id;sensor_type;location;lat;lon;timestamp;temperature;humidity
53152;DHT22;39234;53.158;6.322;2023-03-13T00:02:09;8.30;99.90
53152;DHT22;39234;53.158;6.322;2023-03-13T00:04:34;8.30;99.90
53152;DHT22;39234;53.158;6.322;2023-03-13T00:07:00;8.30;99.90
53152;DHT22;39234;53.158;6.322;2023-03-13T00:09:26;8.10;99.90
53152;DHT22;39234;53.158;6.322;2023-03-13T00:11:52;8.20;99.90
53152;DHT22;39234;53.158;6.322;2023-03-13T00:14:18;8.20;99.90
53152;DHT22;39234;53.158;6.322;2023-03-13T00:16:43;9.00;99.90
53152;DHT22;39234;53.158;6.322;2023-03-13T00:19:09;7.90;99.90
53152;DHT22;39234;53.158;6.322;2023-03-13T00:21:35;8.20;99.90
53152;DHT22;39234;53.158;6.322;2023-03-13T00:24:03;8.20;99.90
53152;DHT22;39234;53.158;6.322;2023-03-13T00:26:29;8.20;99.90
53152;DHT22;39234;53.158;6.322;2023-03-13T00:28:55;8.40;99.90
53152;DHT22;39234;53.158;6.322;2023-03-13T00:31:22;8.20;99.90
53152;DHT22;39234;53.158;6.322;2023-03-13T00:33:51;8.20;99.90
53152;DHT22;39234;53.158;6.322;2023-03-13T00:36:22;8.20;99.90
53152;DHT22;39234;53.158;6.322;2023-03-13T00:38:49;8.20;99.90
53152;DHT22;39234;53.158;6.322;2023-03-13T00:41:18;8.00;99.90
53152;DHT22;39234;53.158;6.322;2023-03-13T00:43:45;8.10;99.90
53152;DHT22;39234;53.158;6.322;2023-03-13T00:46:12;8.20;99.90
53152;DHT22;39234;53.158;6.322;2023-03-13T00:48:38;8.10;99.90
53152;DHT22;39234;53.158;6.322;2023-03-13T00:51:04;8.10;99.90
53152;DHT22;39234;53.158;6.322;2023-03-13T00:53:30;8.10;99.90
53152;DHT22;39234;53.158;6.322;2023-03-13T00:55:57;8.10;99.90
53152;DHT22;39234;53.158;6.322;2023-03-13T00:58:25;8.10;99.90
53152;DHT22;39234;53.158;6.322;2023-03-13T01:00:52;8.10;99.90
53152;DHT22;39234;53.158;6.322;2023-03-13T01:03:19;8.20;99.90
53152;DHT22;39234;53.158;6.322;2023-03-13T01:05:45;8.20;99.90
53152;DHT22;39234;53.158;6.322;2023-03-13T01:08:19;8.00;99.90
53152;DHT22;39234;53.158;6.322;2023-03-13T01:10:45;8.20;99.90
53152;DHT22;39234;53.158;6.322;2023-03-13T01:13:10;8.10;99.90
53152;DHT22;39234;53.158;6.322;2023-03-13T01:15:36;8.10;99.90
53152;DHT22;39234;53.158;6.322;2023-03-13T01:18:02;8.20;99.90
53152;DHT22;39234;53.158;6.322;2023-03-13T01:20:29;8.10;99.90
53152;DHT22;39234;53.158;6.322;2023-03-13T01:22:55;8.20;99.90
53152;DHT22;39234;53.158;6.322;2023-03-13T01:25:21;8.20;99.90
53152;DHT22;39234;53.158;6.322;2023-03-13T01:27:46;8.20;99.90
53152;DHT22;39234;53.158;6.322;2023-03-13T01:30:12;8.20;99.90
53152;DHT22;39234;53.158;6.322;2023-03-13T01:32:38;8.20;99.90
53152;DHT22;39234;53.158;6.322;2023-03-13T01:35:04;8.30;99.90
53152;DHT22;39234;53.158;6.322;2023-03-13T01:37:29;8.20;99.90
53152;DHT22;39234;53.158;6.322;2023-03-13T01:39:55;8.10;99.90
53152;DHT22;39234;53.158;6.322;2023-03-13T01:42:21;8.50;99.90
53152;DHT22;39234;53.158;6.322;2023-03-13T01:44:52;8.40;99.90
53152;DHT22;39234;53.158;6.322;2023-03-13T01:47:19;8.10;99.90
53152;DHT22;39234;53.158;6.322;2023-03-13T01:49:45;8.20;99.90
53152;DHT22;39234;53.158;6.322;2023-03-13T01:52:26;8.30;99.90
53152;DHT22;39234;53.158;6.322;2023-03-13T01:55:00;8.30;99.90
53152;DHT22;39234;53.158;6.322;2023-03-13T01:57:31;8.10;99.90
53152;DHT22;39234;53.158;6.322;2023-03-13T02:00:03;8.30;99.90
53152;DHT22;39234;53.158;6.322;2023-03-13T02:02:32;8.40;99.90
53152;DHT22;39234;53.158;6.322;2023-03-13T02:05:00;8.20;99.90
53152;DHT22;39234;53.158;6.322;2023-03-13T02:07:36;8.30;99.90
53152;DHT22;39234;53.158;6.322;2023-03-13T02:10:03;8.30;99.90
53152;DHT22;39234;53.158;6.322;2023-03-13T02:12:34;8.30;99.90
53152;DHT22;39234;53.158;6.322;2023-03-13T02:15:05;8.40;99.90
53152;DHT22;39234;53.158;6.322;2023-03-13T02:17:33;8.30;99.90
53152;DHT22;39234;53.158;6.322;2023-03-13T02:19:59;9.00;99.90
53152;DHT22;39234;53.158;6.322;2023-03-13T02:30:15;6.10;99.90
53152;DHT22;39234;53.158;6.322;2023-03-13T02:32:42;8.30;99.90
53152;DHT22;39234;53.158;6.322;2023-03-13T02:35:12;8.20;99.90
53152;DHT22;39234;53.158;6.322;2023-03-13T02:37:41;8.40;99.90
53152;DHT22;39234;53.158;6.322;2023-03-13T02:40:12;8.20;99.90
53152;DHT22;39234;53.158;6.322;2023-03-13T02:42:41;8.40;99.90
53152;DHT22;39234;53.158;6.322;2023-03-13T02:45:09;8.30;99.90
53152;DHT22;39234;53.158;6.322;2023-03-13T02:47:35;8.50;99.90
53152;DHT22;39234;53.158;6.322;2023-03-13T02:50:01;8.30;99.90
53152;DHT22;39234;53.158;6.322;2023-03-13T02:52:41;8.50;99.90
53152;DHT22;39234;53.158;6.322;2023-03-13T02:55:23;8.40;99.90
53152;DHT22;39234;53.158;6.322;2023-03-13T02:57:49;8.40;99.90
53152;DHT22;39234;53.158;6.322;2023-03-13T03:00:16;8.40;99.90
53152;DHT22;39234;53.158;6.322;2023-03-13T03:02:43;8.60;99.90
53152;DHT22;39234;53.158;6.322;2023-03-13T03:05:09;8.50;99.90
53152;DHT22;39234;53.158;6.322;2023-03-13T03:07:35;8.50;99.90
53152;DHT22;39234;53.158;6.322;2023-03-13T03:10:01;8.50;99.90
53152;DHT22;39234;53.158;6.322;2023-03-13T03:12:27;8.60;99.90
53152;DHT22;39234;53.158;6.322;2023-03-13T03:14:53;8.60;99.90
53152;DHT22;39234;53.158;6.322;2023-03-13T03:17:19;8.70;99.90
53152;DHT22;39234;53.158;6.322;2023-03-13T03:19:44;8.70;99.90
53152;DHT22;39234;53.158;6.322;2023-03-13T03:22:10;8.70;99.90
53152;DHT22;39234;53.158;6.322;2023-03-13T03:24:36;8.90;99.90
53152;DHT22;39234;53.158;6.322;2023-03-13T03:27:02;9.30;99.90
53152;DHT22;39234;53.158;6.322;2023-03-13T03:29:27;8.70;99.90
53152;DHT22;39234;53.158;6.322;2023-03-13T03:31:53;8.80;99.90
53152;DHT22;39234;53.158;6.322;2023-03-13T03:34:20;8.80;99.90
53152;DHT22;39234;53.158;6.322;2023-03-13T03:36:45;9.00;99.90
53152;DHT22;39234;53.158;6.322;2023-03-13T03:39:11;8.90;99.90
53152;DHT22;39234;53.158;6.322;2023-03-13T03:41:37;8.80;99.90
53152;DHT22;39234;53.158;6.322;2023-03-13T03:44:03;8.80;99.90
53152;DHT22;39234;53.158;6.322;2023-03-13T03:46:29;8.90;99.90
53152;DHT22;39234;53.158;6.322;2023-03-13T03:48:55;9.00;99.90
53152;DHT22;39234;53.158;6.322;2023-03-13T03:51:21;9.00;99.90
53152;DHT22;39234;53.158;6.322;2023-03-13T03:53:47;10.20;99.90
53152;DHT22;39234;53.158;6.322;2023-03-13T03:56:13;8.90;99.90
53152;DHT22;39234;53.158;6.322;2023-03-13T03:58:38;9.10;99.90
53152;DHT22;39234;53.158;6.322;2023-03-13T04:01:04;9.00;99.90
53152;DHT22;39234;53.158;6.322;2023-03-13T04:03:30;9.90;99.90
53152;DHT22;39234;53.158;6.322;2023-03-13T04:05:56;9.10;99.90
53152;DHT22;39234;53.158;6.322;2023-03-13T04:08:22;9.20;99.90
53152;DHT22;39234;53.158;6.322;2023-03-13T04:10:48;9.10;99.90
53152;DHT22;39234;53.158;6.322;2023-03-13T04:13:13;9.00;99.90
53152;DHT22;39234;53.158;6.322;2023-03-13T04:15:39;10.70;99.90
53152;DHT22;39234;53.158;6.322;2023-03-13T04:18:05;9.30;99.90
53152;DHT22;39234;53.158;6.322;2023-03-13T04:20:32;9.30;99.90
53152;DHT22;39234;53.158;6.322;2023-03-13T04:22:58;9.40;99.90
53152;DHT22;39234;53.158;6.322;2023-03-13T04:25:24;9.50;99.90
53152;DHT22;39234;53.158;6.322;2023-03-13T04:27:50;9.40;99.90
53152;DHT22;39234;53.158;6.322;2023-03-13T04:30:16;9.50;99.90
53152;DHT22;39234;53.158;6.322;2023-03-13T04:32:42;9.60;99.90
53152;DHT22;39234;53.158;6.322;2023-03-13T04:35:08;9.60;99.90
53152;DHT22;39234;53.158;6.322;2023-03-13T04:37:33;9.80;99.90
53152;DHT22;39234;53.158;6.322;2023-03-13T04:39:59;9.60;99.90
53152;DHT22;39234;53.158;6.322;2023-03-13T04:42:26;9.70;99.90
53152;DHT22;39234;53.158;6.322;2023-03-13T04:44:51;9.80;99.90
53152;DHT22;39234;53.158;6.322;2023-03-13T04:47:17;9.90;99.90
53152;DHT22;39234;53.158;6.322;2023-03-13T04:49:43;10.00;99.90
53152;DHT22;39234;53.158;6.322;2023-03-13T04:52:08;10.00;99.90
53152;DHT22;39234;53.158;6.322;2023-03-13T04:54:34;10.00;99.90
53152;DHT22;39234;53.158;6.322;2023-03-13T04:57:00;10.20;99.90
53152;DHT22;39234;53.158;6.322;2023-03-13T04:59:26;10.20;99.90
53152;DHT22;39234;53.158;6.322;2023-03-13T05:01:51;10.00;99.90
53152;DHT22;39234;53.158;6.322;2023-03-13T05:04:17;10.00;99.90
53152;DHT22;39234;53.158;6.322;2023-03-13T05:06:43;10.10;99.90
53152;DHT22;39234;53.158;6.322;2023-03-13T05:09:09;10.30;99.90
53152;DHT22;39234;53.158;6.322;2023-03-13T05:11:34;10.40;99.90
53152;DHT22;39234;53.158;6.322;2023-03-13T05:14:00;10.20;99.90
53152;DHT22;39234;53.158;6.322;2023-03-13T05:16:26;10.30;99.90
53152;DHT22;39234;53.158;6.322;2023-03-13T05:18:52;10.30;99.90
53152;DHT22;39234;53.158;6.322;2023-03-13T05:21:17;10.40;99.90
53152;DHT22;39234;53.158;6.322;2023-03-13T05:23:43;10.30;99.90
53152;DHT22;39234;53.158;6.322;2023-03-13T05:26:09;10.30;99.90
53152;DHT22;39234;53.158;6.322;2023-03-13T05:28:34;10.30;99.90
53152;DHT22;39234;53.158;6.322;2023-03-13T05:31:00;9.70;99.90
53152;DHT22;39234;53.158;6.322;2023-03-13T05:33:26;10.30;99.90
53152;DHT22;39234;53.158;6.322;2023-03-13T05:35:52;10.50;99.90
53152;DHT22;39234;53.158;6.322;2023-03-13T05:38:17;10.30;99.90
53152;DHT22;39234;53.158;6.322;2023-03-13T05:40:43;10.20;99.90
53152;DHT22;39234;53.158;6.322;2023-03-13T05:43:09;10.50;99.90
53152;DHT22;39234;53.158;6.322;2023-03-13T05:45:35;10.50;99.90
53152;DHT22;39234;53.158;6.322;2023-03-13T05:48:01;10.50;99.90
53152;DHT22;39234;53.158;6.322;2023-03-13T05:50:27;11.80;99.90
53152;DHT22;39234;53.158;6.322;2023-03-13T05:52:52;10.50;99.90
53152;DHT22;39234;53.158;6.322;2023-03-13T05:55:18;10.60;99.90
53152;DHT22;39234;53.158;6.322;2023-03-13T05:57:45;10.40;99.90
53152;DHT22;39234;53.158;6.322;2023-03-13T06:00:12;10.50;99.90
53152;DHT22;39234;53.158;6.322;2023-03-13T06:02:38;10.50;99.90
53152;DHT22;39234;53.158;6.322;2023-03-13T06:05:04;10.60;99.90
53152;DHT22;39234;53.158;6.322;2023-03-13T06:07:30;10.50;99.90
53152;DHT22;39234;53.158;6.322;2023-03-13T06:09:55;10.50;99.90
53152;DHT22;39234;53.158;6.322;2023-03-13T06:12:21;10.40;99.90
53152;DHT22;39234;53.158;6.322;2023-03-13T06:14:47;10.50;99.90
53152;DHT22;39234;53.158;6.322;2023-03-13T06:17:13;10.40;99.90
53152;DHT22;39234;53.158;6.322;2023-03-13T06:19:38;10.50;99.90
53152;DHT22;39234;53.158;6.322;2023-03-13T06:22:04;10.40;99.90
53152;DHT22;39234;53.158;6.322;2023-03-13T06:24:30;10.40;99.90
53152;DHT22;39234;53.158;6.322;2023-03-13T06:26:56;10.50;99.90
53152;DHT22;39234;53.158;6.322;2023-03-13T06:29:22;10.50;99.90
53152;DHT22;39234;53.158;6.322;2023-03-13T06:31:49;10.50;99.90
53152;DHT22;39234;53.158;6.322;2023-03-13T06:34:16;10.50;99.90
53152;DHT22;39234;53.158;6.322;2023-03-13T06:36:42;10.60;99.90
53152;DHT22;39234;53.158;6.322;2023-03-13T06:39:08;10.50;99.90
53152;DHT22;39234;53.158;6.322;2023-03-13T06:41:34;10.60;99.90
53152;DHT22;39234;53.158;6.322;2023-03-13T06:44:00;10.80;99.90
53152;DHT22;39234;53.158;6.322;2023-03-13T06:46:26;12.40;99.90
53152;DHT22;39234;53.158;6.322;2023-03-13T06:48:52;10.60;99.90
53152;DHT22;39234;53.158;6.322;2023-03-13T06:51:19;10.90;99.90
53152;DHT22;39234;53.158;6.322;2023-03-13T06:53:46;10.70;99.90
53152;DHT22;39234;53.158;6.322;2023-03-13T06:56:12;10.90;99.90
53152;DHT22;39234;53.158;6.322;2023-03-13T06:58:37;10.80;99.90
53152;DHT22;39234;53.158;6.322;2023-03-13T07:01:07;10.70;99.90
53152;DHT22;39234;53.158;6.322;2023-03-13T07:03:34;10.80;99.90
53152;DHT22;39234;53.158;6.322;2023-03-13T07:06:00;11.10;99.90
53152;DHT22;39234;53.158;6.322;2023-03-13T07:08:26;10.70;99.90
53152;DHT22;39234;53.158;6.322;2023-03-13T07:10:56;11.00;99.90
53152;DHT22;39234;53.158;6.322;2023-03-13T07:13:22;10.80;99.90
53152;DHT22;39234;53.158;6.322;2023-03-13T07:15:48;11.00;99.90
53152;DHT22;39234;53.158;6.322;2023-03-13T07:18:14;11.10;99.90
53152;DHT22;39234;53.158;6.322;2023-03-13T07:20:40;10.90;99.90
53152;DHT22;39234;53.158;6.322;2023-03-13T07:23:06;11.10;99.90
53152;DHT22;39234;53.158;6.322;2023-03-13T07:25:32;11.00;99.90
53152;DHT22;39234;53.158;6.322;2023-03-13T07:27:57;11.00;99.90
53152;DHT22;39234;53.158;6.322;2023-03-13T07:30:25;10.90;99.90
53152;DHT22;39234;53.158;6.322;2023-03-13T07:32:51;10.90;99.90
53152;DHT22;39234;53.158;6.322;2023-03-13T07:35:17;11.00;99.90
53152;DHT22;39234;53.158;6.322;2023-03-13T07:37:43;10.70;99.90
53152;DHT22;39234;53.158;6.322;2023-03-13T07:40:09;10.80;99.90
53152;DHT22;39234;53.158;6.322;2023-03-13T07:42:35;11.00;99.90
53152;DHT22;39234;53.158;6.322;2023-03-13T07:45:00;10.90;99.90
53152;DHT22;39234;53.158;6.322;2023-03-13T07:47:26;10.80;99.90
53152;DHT22;39234;53.158;6.322;2023-03-13T07:49:52;10.70;99.90
53152;DHT22;39234;53.158;6.322;2023-03-13T07:52:18;10.80;99.90
53152;DHT22;39234;53.158;6.322;2023-03-13T07:54:44;10.80;99.90
53152;DHT22;39234;53.158;6.322;2023-03-13T07:57:09;12.70;99.90
53152;DHT22;39234;53.158;6.322;2023-03-13T07:59:35;10.80;99.90
53152;DHT22;39234;53.158;6.322;2023-03-13T08:02:01;10.80;99.90
53152;DHT22;39234;53.158;6.322;2023-03-13T08:04:27;10.90;99.90
53152;DHT22;39234;53.158;6.322;2023-03-13T08:06:52;10.70;99.90
53152;DHT22;39234;53.158;6.322;2023-03-13T08:09:19;10.90;99.90
53152;DHT22;39234;53.158;6.322;2023-03-13T08:11:45;10.80;99.90
53152;DHT22;39234;53.158;6.322;2023-03-13T08:14:11;10.80;99.90
53152;DHT22;39234;53.158;6.322;2023-03-13T08:16:37;11.50;99.90
53152;DHT22;39234;53.158;6.322;2023-03-13T08:19:03;11.90;99.90
53152;DHT22;39234;53.158;6.322;2023-03-13T08:21:32;11.20;99.90
53152;DHT22;39234;53.158;6.322;2023-03-13T08:24:00;11.00;99.90
53152;DHT22;39234;53.158;6.322;2023-03-13T08:26:29;11.40;99.90
53152;DHT22;39234;53.158;6.322;2023-03-13T08:29:00;11.50;99.90
53152;DHT22;39234;53.158;6.322;2023-03-13T08:31:32;11.40;99.90
53152;DHT22;39234;53.158;6.322;2023-03-13T08:33:58;12.00;99.90
53152;DHT22;39234;53.158;6.322;2023-03-13T08:36:32;12.00;99.90
53152;DHT22;39234;53.158;6.322;2023-03-13T08:39:04;12.20;99.90
53152;DHT22;39234;53.158;6.322;2023-03-13T08:41:33;12.70;99.90
53152;DHT22;39234;53.158;6.322;2023-03-13T08:44:01;13.20;99.90
53152;DHT22;39234;53.158;6.322;2023-03-13T08:46:32;13.70;99.90
53152;DHT22;39234;53.158;6.322;2023-03-13T08:48:58;13.90;99.90
53152;DHT22;39234;53.158;6.322;2023-03-13T08:51:26;13.50;99.90
53152;DHT22;39234;53.158;6.322;2023-03-13T08:53:53;13.30;99.90
53152;DHT22;39234;53.158;6.322;2023-03-13T08:56:22;13.10;99.90
53152;DHT22;39234;53.158;6.322;2023-03-13T08:58:56;13.00;99.90
53152;DHT22;39234;53.158;6.322;2023-03-13T09:01:24;13.10;99.90
53152;DHT22;39234;53.158;6.322;2023-03-13T09:03:50;13.20;99.90
53152;DHT22;39234;53.158;6.322;2023-03-13T09:06:17;13.20;99.90
53152;DHT22;39234;53.158;6.322;2023-03-13T09:08:43;12.90;99.90
53152;DHT22;39234;53.158;6.322;2023-03-13T09:11:14;12.70;99.90
53152;DHT22;39234;53.158;6.322;2023-03-13T09:13:42;12.30;99.90
53152;DHT22;39234;53.158;6.322;2023-03-13T09:16:14;12.40;99.90
53152;DHT22;39234;53.158;6.322;2023-03-13T09:18:40;12.40;99.90
53152;DHT22;39234;53.158;6.322;2023-03-13T09:21:09;12.50;99.90
53152;DHT22;39234;53.158;6.322;2023-03-13T09:23:36;12.40;99.90
53152;DHT22;39234;53.158;6.322;2023-03-13T09:26:02;12.40;99.90
53152;DHT22;39234;53.158;6.322;2023-03-13T09:28:28;12.20;99.90
53152;DHT22;39234;53.158;6.322;2023-03-13T09:30:54;12.20;99.90
53152;DHT22;39234;53.158;6.322;2023-03-13T09:33:21;12.00;99.90
53152;DHT22;39234;53.158;6.322;2023-03-13T09:35:50;12.00;99.90
53152;DHT22;39234;53.158;6.322;2023-03-13T09:38:17;12.10;99.90
53152;DHT22;39234;53.158;6.322;2023-03-13T09:40:45;11.80;99.90
53152;DHT22;39234;53.158;6.322;2023-03-13T09:43:33;12.00;99.90
53152;DHT22;39234;53.158;6.322;2023-03-13T09:46:05;12.20;99.90
53152;DHT22;39234;53.158;6.322;2023-03-13T09:48:38;12.30;99.90
53152;DHT22;39234;53.158;6.322;2023-03-13T09:51:22;12.10;99.90
53152;DHT22;39234;53.158;6.322;2023-03-13T09:54:07;12.30;99.90
53152;DHT22;39234;53.158;6.322;2023-03-13T09:56:43;12.40;99.90
53152;DHT22;39234;53.158;6.322;2023-03-13T10:01:56;13.00;99.90
53152;DHT22;39234;53.158;6.322;2023-03-13T10:04:33;13.30;99.90
53152;DHT22;39234;53.158;6.322;2023-03-13T10:07:01;13.60;99.90
53152;DHT22;39234;53.158;6.322;2023-03-13T10:09:30;13.60;99.90
53152;DHT22;39234;53.158;6.322;2023-03-13T10:12:19;13.60;99.90
53152;DHT22;39234;53.158;6.322;2023-03-13T10:17:45;14.00;99.90
53152;DHT22;39234;53.158;6.322;2023-03-13T10:22:57;14.10;99.90
53152;DHT22;39234;53.158;6.322;2023-03-13T10:25:38;14.20;99.90
53152;DHT22;39234;53.158;6.322;2023-03-13T10:28:05;14.00;99.90
53152;DHT22;39234;53.158;6.322;2023-03-13T10:30:33;14.20;99.90
53152;DHT22;39234;53.158;6.322;2023-03-13T10:35:36;14.10;99.90
53152;DHT22;39234;53.158;6.322;2023-03-13T10:38:17;14.40;99.90
53152;DHT22;39234;53.158;6.322;2023-03-13T10:40:43;14.20;99.90
53152;DHT22;39234;53.158;6.322;2023-03-13T10:43:21;14.30;99.90
53152;DHT22;39234;53.158;6.322;2023-03-13T10:45:46;14.10;99.90
53152;DHT22;39234;53.158;6.322;2023-03-13T10:48:19;14.20;99.90
53152;DHT22;39234;53.158;6.322;2023-03-13T10:50:48;14.20;99.90
53152;DHT22;39234;53.158;6.322;2023-03-13T10:55:46;14.40;99.90
53152;DHT22;39234;53.158;6.322;2023-03-13T10:58:33;14.40;99.90
53152;DHT22;39234;53.158;6.322;2023-03-13T11:01:20;14.00;99.90
53152;DHT22;39234;53.158;6.322;2023-03-13T11:03:47;14.40;99.90
53152;DHT22;39234;53.158;6.322;2023-03-13T11:08:48;14.20;99.90
53152;DHT22;39234;53.158;6.322;2023-03-13T11:11:18;14.10;99.90
53152;DHT22;39234;53.158;6.322;2023-03-13T11:13:45;16.00;99.90
53152;DHT22;39234;53.158;6.322;2023-03-13T11:16:22;14.10;99.90
53152;DHT22;39234;53.158;6.322;2023-03-13T11:19:07;14.20;99.90
53152;DHT22;39234;53.158;6.322;2023-03-13T11:22:03;13.90;99.90
53152;DHT22;39234;53.158;6.322;2023-03-13T11:32:53;14.20;99.90
53152;DHT22;39234;53.158;6.322;2023-03-13T11:35:49;14.10;99.90
53152;DHT22;39234;53.158;6.322;2023-03-13T11:38:26;14.60;99.90
53152;DHT22;39234;53.158;6.322;2023-03-13T11:46:28;14.30;99.90
53152;DHT22;39234;53.158;6.322;2023-03-13T12:00:14;14.40;99.90
53152;DHT22;39234;53.158;6.322;2023-03-13T12:03:09;14.40;99.90
53152;DHT22;39234;53.158;6.322;2023-03-13T12:05:52;14.30;99.90
53152;DHT22;39234;53.158;6.322;2023-03-13T12:09:02;14.60;99.90
53152;DHT22;39234;53.158;6.322;2023-03-13T12:11:26;14.60;99.90
53152;DHT22;39234;53.158;6.322;2023-03-13T12:13:55;14.70;99.90
53152;DHT22;39234;53.158;6.322;2023-03-13T12:16:29;14.80;99.90
53152;DHT22;39234;53.158;6.322;2023-03-13T12:18:58;14.60;99.90
53152;DHT22;39234;53.158;6.322;2023-03-13T12:21:37;14.80;99.90
53152;DHT22;39234;53.158;6.322;2023-03-13T12:26:53;14.90;99.90
53152;DHT22;39234;53.158;6.322;2023-03-13T12:40:15;14.90;99.90
53152;DHT22;39234;53.158;6.322;2023-03-13T12:54:24;14.50;99.90
53152;DHT22;39234;53.158;6.322;2023-03-13T13:01:58;14.50;99.90
53152;DHT22;39234;53.158;6.322;2023-03-13T13:04:41;15.30;99.90
53152;DHT22;39234;53.158;6.322;2023-03-13T13:07:29;14.60;99.90
53152;DHT22;39234;53.158;6.322;2023-03-13T13:12:38;14.40;99.90
53152;DHT22;39234;53.158;6.322;2023-03-13T13:15:26;14.40;99.90
53152;DHT22;39234;53.158;6.322;2023-03-13T13:20:41;14.10;99.90
53152;DHT22;39234;53.158;6.322;2023-03-13T13:23:28;14.30;99.90
53152;DHT22;39234;53.158;6.322;2023-03-13T13:37:23;14.00;99.90
53152;DHT22;39234;53.158;6.322;2023-03-13T13:39:49;13.90;99.90
53152;DHT22;39234;53.158;6.322;2023-03-13T13:47:39;14.00;99.90
53152;DHT22;39234;53.158;6.322;2023-03-13T13:50:19;13.90;99.90
53152;DHT22;39234;53.158;6.322;2023-03-13T13:52:46;14.20;99.90
53152;DHT22;39234;53.158;6.322;2023-03-13T14:00:43;13.90;99.90
53152;DHT22;39234;53.158;6.322;2023-03-13T14:03:37;14.00;99.90
53152;DHT22;39234;53.158;6.322;2023-03-13T14:06:22;13.80;99.90
53152;DHT22;39234;53.158;6.322;2023-03-13T14:08:54;13.70;99.90
53152;DHT22;39234;53.158;6.322;2023-03-13T14:14:22;13.80;99.90
53152;DHT22;39234;53.158;6.322;2023-03-13T14:16:53;13.60;99.90
53152;DHT22;39234;53.158;6.322;2023-03-13T14:19:28;13.70;99.90
53152;DHT22;39234;53.158;6.322;2023-03-13T14:22:11;13.80;99.90
53152;DHT22;39234;53.158;6.322;2023-03-13T14:24:39;13.50;99.90
53152;DHT22;39234;53.158;6.322;2023-03-13T14:27:16;13.60;99.90
53152;DHT22;39234;53.158;6.322;2023-03-13T14:30:02;13.60;99.90
53152;DHT22;39234;53.158;6.322;2023-03-13T14:32:28;13.50;99.90
53152;DHT22;39234;53.158;6.322;2023-03-13T14:34:54;13.40;99.90
53152;DHT22;39234;53.158;6.322;2023-03-13T14:37:34;13.50;99.90
53152;DHT22;39234;53.158;6.322;2023-03-13T14:40:29;13.60;99.90
53152;DHT22;39234;53.158;6.322;2023-03-13T14:42:59;13.60;99.90
53152;DHT22;39234;53.158;6.322;2023-03-13T14:45:31;13.70;99.90
53152;DHT22;39234;53.158;6.322;2023-03-13T14:48:21;13.70;99.90
53152;DHT22;39234;53.158;6.322;2023-03-13T14:50:49;13.50;99.90
53152;DHT22;39234;53.158;6.322;2023-03-13T14:53:17;13.70;99.90
53152;DHT22;39234;53.158;6.322;2023-03-13T14:55:44;13.50;99.90
53152;DHT22;39234;53.158;6.322;2023-03-13T15:00:48;13.40;99.90
53152;DHT22;39234;53.158;6.322;2023-03-13T15:08:44;13.40;99.90
53152;DHT22;39234;53.158;6.322;2023-03-13T15:11:30;13.40;99.90
53152;DHT22;39234;53.158;6.322;2023-03-13T15:13:59;13.20;99.90
53152;DHT22;39234;53.158;6.322;2023-03-13T15:16:27;13.30;99.90
53152;DHT22;39234;53.158;6.322;2023-03-13T15:18:54;13.10;99.90
53152;DHT22;39234;53.158;6.322;2023-03-13T15:21:24;13.30;99.90
53152;DHT22;39234;53.158;6.322;2023-03-13T15:23:53;13.20;99.90
53152;DHT22;39234;53.158;6.322;2023-03-13T15:26:19;13.20;99.90
53152;DHT22;39234;53.158;6.322;2023-03-13T15:28:45;13.10;99.90
53152;DHT22;39234;53.158;6.322;2023-03-13T15:31:11;13.00;99.90
53152;DHT22;39234;53.158;6.322;2023-03-13T15:33:37;13.10;99.90
53152;DHT22;39234;53.158;6.322;2023-03-13T15:36:04;13.00;99.90
53152;DHT22;39234;53.158;6.322;2023-03-13T15:38:30;12.90;99.90
53152;DHT22;39234;53.158;6.322;2023-03-13T15:40:55;12.90;99.90
53152;DHT22;39234;53.158;6.322;2023-03-13T15:43:22;12.90;99.90
53152;DHT22;39234;53.158;6.322;2023-03-13T15:45:49;12.90;99.90
53152;DHT22;39234;53.158;6.322;2023-03-13T15:48:26;12.70;99.90
53152;DHT22;39234;53.158;6.322;2023-03-13T15:50:55;12.80;99.90
53152;DHT22;39234;53.158;6.322;2023-03-13T15:53:23;12.80;99.90
53152;DHT22;39234;53.158;6.322;2023-03-13T15:55:51;12.60;99.90
53152;DHT22;39234;53.158;6.322;2023-03-13T15:58:17;12.60;99.90
53152;DHT22;39234;53.158;6.322;2023-03-13T16:00:44;12.60;99.90
53152;DHT22;39234;53.158;6.322;2023-03-13T16:03:36;12.60;99.90
53152;DHT22;39234;53.158;6.322;2023-03-13T16:06:19;12.50;99.90
53152;DHT22;39234;53.158;6.322;2023-03-13T16:08:45;12.30;99.90
53152;DHT22;39234;53.158;6.322;2023-03-13T16:11:13;12.50;99.90
53152;DHT22;39234;53.158;6.322;2023-03-13T16:13:39;12.70;99.90
53152;DHT22;39234;53.158;6.322;2023-03-13T16:18:45;12.40;99.90
53152;DHT22;39234;53.158;6.322;2023-03-13T16:21:22;12.50;99.90
53152;DHT22;39234;53.158;6.322;2023-03-13T16:23:49;12.40;99.90
53152;DHT22;39234;53.158;6.322;2023-03-13T16:26:26;12.20;99.90
53152;DHT22;39234;53.158;6.322;2023-03-13T16:28:53;12.10;99.90
53152;DHT22;39234;53.158;6.322;2023-03-13T16:31:27;12.10;99.90
53152;DHT22;39234;53.158;6.322;2023-03-13T16:33:54;12.00;99.90
53152;DHT22;39234;53.158;6.322;2023-03-13T16:36:29;11.90;99.90
53152;DHT22;39234;53.158;6.322;2023-03-13T16:38:59;11.90;99.90
53152;DHT22;39234;53.158;6.322;2023-03-13T16:41:26;11.90;99.90
53152;DHT22;39234;53.158;6.322;2023-03-13T16:43:53;12.00;99.90
53152;DHT22;39234;53.158;6.322;2023-03-13T16:46:26;11.70;99.90
53152;DHT22;39234;53.158;6.322;2023-03-13T16:48:54;12.00;99.90
53152;DHT22;39234;53.158;6.322;2023-03-13T16:51:24;11.80;99.90
53152;DHT22;39234;53.158;6.322;2023-03-13T16:53:51;11.80;99.90
53152;DHT22;39234;53.158;6.322;2023-03-13T16:58:46;11.70;99.90
53152;DHT22;39234;53.158;6.322;2023-03-13T17:01:12;11.60;99.90
53152;DHT22;39234;53.158;6.322;2023-03-13T17:03:38;11.70;99.90
53152;DHT22;39234;53.158;6.322;2023-03-13T17:06:04;11.40;99.90
53152;DHT22;39234;53.158;6.322;2023-03-13T17:08:30;11.50;99.90
53152;DHT22;39234;53.158;6.322;2023-03-13T17:10:55;11.70;99.90
53152;DHT22;39234;53.158;6.322;2023-03-13T17:13:21;11.30;99.90
53152;DHT22;39234;53.158;6.322;2023-03-13T17:15:48;11.50;99.90
53152;DHT22;39234;53.158;6.322;2023-03-13T17:18:14;11.40;99.90
53152;DHT22;39234;53.158;6.322;2023-03-13T17:20:40;12.10;99.90
53152;DHT22;39234;53.158;6.322;2023-03-13T17:23:06;11.30;99.90
53152;DHT22;39234;53.158;6.322;2023-03-13T17:25:31;11.10;99.90
53152;DHT22;39234;53.158;6.322;2023-03-13T17:27:57;11.20;99.90
53152;DHT22;39234;53.158;6.322;2023-03-13T17:30:26;11.20;99.90
53152;DHT22;39234;53.158;6.322;2023-03-13T17:32:52;11.10;99.90
53152;DHT22;39234;53.158;6.322;2023-03-13T17:35:19;11.00;99.90
53152;DHT22;39234;53.158;6.322;2023-03-13T17:37:46;10.90;99.90
53152;DHT22;39234;53.158;6.322;2023-03-13T17:40:23;10.80;99.90
53152;DHT22;39234;53.158;6.322;2023-03-13T17:42:49;10.90;99.90
53152;DHT22;39234;53.158;6.322;2023-03-13T17:45:15;10.80;99.90
53152;DHT22;39234;53.158;6.322;2023-03-13T17:47:42;10.80;99.90
53152;DHT22;39234;53.158;6.322;2023-03-13T17:52:45;10.90;99.90